Time;durP1;ratioP1;P1;durP2;ratioP2;P2;SDS_P1;SDS_P2;PMS_P1;PMS_P2;Temp;Humidity;BMP_temperature;BMP_pressure;BME280_temperature;BME280_humidity;BME280_pressure;Samples;Min_cycle;Max_cycle;Signal;HPM_P1;HPM_P2
2022/08/20 00:00:11;;;;;;;;;2.00;2.00;;;;;-145.03;100.00;62373.16;5078787;27;45549;-74
2022/08/20 00:02:49;;;;;;;;;2.33;1.00;;;;;-145.03;100.00;62373.16;5076925;28;47462;-73
2022/08/20 00:05:18;;;;;;;;;1.00;1.00;;;;;-145.03;100.00;62373.16;5077049;28;45560;-73
2022/08/20 00:07:44;;;;;;;;;2.00;2.00;;;;;-145.03;100.00;62373.16;5078550;28;45444;-73
2022/08/20 00:10:09;;;;;;;;;2.00;2.00;;;;;-145.03;100.00;62373.16;5077220;28;45531;-73
2022/08/20 00:12:36;;;;;;;;;2.00;2.00;;;;;-145.03;100.00;62373.16;5077664;28;45719;-74
2022/08/20 00:15:04;;;;;;;;;3.00;3.00;;;;;-145.03;100.00;62373.16;5078295;27;45456;-73
2022/08/20 00:17:36;;;;;;;;;2.00;2.00;;;;;-145.03;100.00;62373.16;5078293;28;45394;-74
2022/08/20 00:20:08;;;;;;;;;2.33;2.00;;;;;-145.03;100.00;62373.16;5078511;27;45394;-73
2022/08/20 00:22:34;;;;;;;;;1.00;1.00;;;;;-145.03;100.00;62373.16;5078211;28;45619;-74
2022/08/20 00:24:59;;;;;;;;;2.00;2.00;;;;;-145.03;100.00;62373.16;5076636;28;45852;-73
2022/08/20 00:27:24;;;;;;;;;6.00;3.00;;;;;-145.03;100.00;62373.16;5078049;28;45745;-73
2022/08/20 00:29:50;;;;;;;;;3.00;3.00;;;;;-145.03;100.00;62373.16;5078521;28;45428;-74
2022/08/20 00:32:15;;;;;;;;;2.00;2.00;;;;;-145.03;100.00;62373.16;5077895;28;47138;-73
2022/08/20 00:34:41;;;;;;;;;2.00;2.00;;;;;-145.03;100.00;62373.16;5077950;28;45452;-73
2022/08/20 00:37:07;;;;;;;;;2.00;2.00;;;;;-145.03;100.00;62373.16;5078065;28;45370;-73
2022/08/20 00:39:33;;;;;;;;;2.00;1.33;;;;;-145.03;100.00;62373.16;5078199;27;45607;-73
2022/08/20 00:41:58;;;;;;;;;6.00;3.00;;;;;-145.03;100.00;62373.16;5077412;28;45436;-73
2022/08/20 00:44:24;;;;;;;;;3.33;2.00;;;;;-145.03;100.00;62373.16;5077745;27;45452;-73
2022/08/20 00:46:51;;;;;;;;;2.00;2.00;;;;;-145.03;100.00;62373.16;5077674;28;45389;-73
2022/08/20 00:49:23;;;;;;;;;3.33;2.00;;;;;-145.03;100.00;62373.16;5077364;28;45476;-74
2022/08/20 00:52:01;;;;;;;;;1.00;1.00;;;;;-145.03;100.00;62373.16;5077364;28;46972;-73
2022/08/20 00:54:27;;;;;;;;;2.00;2.00;;;;;-145.03;100.00;62373.16;5077504;28;45558;-73
2022/08/20 00:57:07;;;;;;;;;2.00;2.00;;;;;-145.03;100.00;62373.16;5077438;28;45534;-73
2022/08/20 00:59:36;;;;;;;;;2.33;2.00;;;;;-145.03;100.00;62373.16;5077865;28;45428;-73
2022/08/20 01:02:04;;;;;;;;;1.00;1.00;;;;;-145.03;100.00;62373.16;5077485;27;47061;-73
2022/08/20 01:04:32;;;;;;;;;2.00;2.00;;;;;-145.03;100.00;62373.16;5077522;28;45531;-73
2022/08/20 01:06:58;;;;;;;;;2.00;2.00;;;;;-145.03;100.00;62373.16;5077600;28;45403;-73
2022/08/20 01:09:24;;;;;;;;;2.00;2.00;;;;;-145.03;100.00;62373.16;5077371;27;45481;-73
2022/08/20 01:11:49;;;;;;;;;2.00;2.00;;;;;-145.03;100.00;62373.16;5077010;28;46057;-73
2022/08/20 01:16:49;;;;;;;;;1.00;1.00;;;;;-145.03;100.00;62373.16;5077484;28;45528;-73
2022/08/20 01:19:20;;;;;;;;;5.00;1.67;;;;;-145.03;100.00;62373.16;5077630;28;45427;-73
2022/08/20 01:21:46;;;;;;;;;1.00;1.00;;;;;-145.03;100.00;62373.16;5077052;28;47338;-73
2022/08/20 01:24:38;;;;;;;;;1.00;1.00;;;;;-145.03;100.00;62373.16;5076871;27;45425;-73
2022/08/20 01:27:05;;;;;;;;;2.25;1.00;;;;;-145.03;100.00;62373.16;5074724;28;45703;-73
2022/08/20 01:29:37;;;;;;;;;1.33;1.00;;;;;-145.03;100.00;62373.16;5077620;28;45439;-74
2022/08/20 01:32:04;;;;;;;;;1.25;1.00;;;;;-145.03;100.00;62373.16;5076889;28;47588;-73
2022/08/20 01:34:29;;;;;;;;;1.00;1.00;;;;;-145.03;100.00;62373.16;5075597;28;45452;-73
2022/08/20 01:36:56;;;;;;;;;2.00;2.00;;;;;-145.03;100.00;62373.16;5076795;28;45658;-73
2022/08/20 01:39:25;;;;;;;;;3.00;2.00;;;;;-145.03;100.00;62373.16;5077100;28;45393;-73
2022/08/20 01:42:11;;;;;;;;;2.00;2.00;;;;;-145.03;100.00;62373.16;5076813;28;46357;-73
2022/08/20 01:44:38;;;;;;;;;1.33;1.33;;;;;-145.03;100.00;62373.16;5056608;28;45552;-73
2022/08/20 01:47:09;;;;;;;;;2.67;1.00;;;;;-145.03;100.00;62373.16;5056596;28;45502;-73
2022/08/20 01:49:35;;;;;;;;;2.33;1.33;;;;;-145.03;100.00;62373.16;5056987;28;45507;-73
2022/08/20 01:52:06;;;;;;;;;3.75;1.00;;;;;-145.03;100.00;62373.16;5056233;28;45594;-73
2022/08/20 01:54:32;;;;;;;;;2.33;2.33;;;;;-145.03;100.00;62373.16;5056431;28;45369;-73
2022/08/20 01:57:11;;;;;;;;;1.50;1.50;;;;;-145.03;100.00;62373.16;5056629;28;45405;-73
2022/08/20 01:59:36;;;;;;;;;0.75;0.25;;;;;-145.03;100.00;62373.16;5055264;28;45544;-73
2022/08/20 02:02:05;;;;;;;;;4.50;2.50;;;;;-145.03;100.00;62373.16;5055363;28;46983;-73
2022/08/20 02:04:32;;;;;;;;;1.00;1.00;;;;;-145.03;100.00;62373.16;5056349;28;45387;-73
2022/08/20 02:07:00;;;;;;;;;1.33;1.33;;;;;-145.03;100.00;62373.16;5088968;27;45414;-73
2022/08/20 02:09:32;;;;;;;;;0.75;0.75;;;;;-145.03;100.00;62373.16;5056591;28;45397;-73
2022/08/20 02:11:58;;;;;;;;;2.33;1.67;;;;;-145.03;100.00;62373.16;5056067;28;47118;-73
2022/08/20 02:14:25;;;;;;;;;1.25;1.00;;;;;-145.03;100.00;62373.16;5056287;28;45424;-73
2022/08/20 02:16:51;;;;;;;;;2.00;1.25;;;;;-145.03;100.00;62373.16;5056398;28;45434;-73
2022/08/20 02:19:24;;;;;;;;;2.00;2.00;;;;;-145.03;100.00;62373.16;5056377;28;45404;-73
2022/08/20 02:21:54;;;;;;;;;0.25;0.25;;;;;-145.03;100.00;62373.16;5055715;28;46296;-73
2022/08/20 02:24:20;;;;;;;;;3.00;2.33;;;;;-145.03;100.00;62373.16;5055933;28;45488;-73
2022/08/20 02:26:46;;;;;;;;;1.75;1.50;;;;;-145.03;100.00;62373.16;5056258;28;45410;-73
2022/08/20 02:29:13;;;;;;;;;1.00;1.00;;;;;-145.03;100.00;62373.16;5055158;28;45630;-73
2022/08/20 02:31:42;;;;;;;;;2.25;2.00;;;;;-145.03;100.00;62373.16;5055836;28;47188;-73
2022/08/20 02:34:10;;;;;;;;;1.25;1.25;;;;;-145.03;100.00;62373.16;5055854;28;45436;-73
2022/08/20 02:36:37;;;;;;;;;3.00;3.00;;;;;-145.03;100.00;62373.16;5055804;28;45448;-73
2022/08/20 02:39:06;;;;;;;;;3.50;2.00;;;;;-145.03;100.00;62373.16;5056173;28;45686;-74
2022/08/20 02:41:32;;;;;;;;;4.00;1.00;;;;;-145.03;100.00;62373.16;5055663;28;46145;-73
2022/08/20 02:43:58;;;;;;;;;1.25;1.25;;;;;-145.03;100.00;62373.16;5071162;27;45539;-73
2022/08/20 02:46:23;;;;;;;;;1.25;1.25;;;;;-145.03;100.00;62373.16;5076212;28;45480;-73
2022/08/20 02:48:48;;;;;;;;;2.00;2.00;;;;;-145.03;100.00;62373.16;5076466;27;45431;-73
2022/08/20 02:51:14;;;;;;;;;1.00;1.00;;;;;-145.03;100.00;62373.16;5075928;27;45518;-73
2022/08/20 02:53:43;;;;;;;;;1.25;1.25;;;;;-145.03;100.00;62373.16;5076079;28;45486;-73
2022/08/20 02:56:10;;;;;;;;;2.75;1.00;;;;;-145.03;100.00;62373.16;5076137;28;45509;-73
2022/08/20 02:58:37;;;;;;;;;1.00;1.00;;;;;-145.03;100.00;62373.16;5076370;28;45582;-73
2022/08/20 03:01:05;;;;;;;;;3.33;2.00;;;;;-145.03;100.00;62373.16;5076000;28;45460;-73
2022/08/20 03:03:30;;;;;;;;;1.00;1.00;;;;;-145.03;100.00;62373.16;5075916;28;45343;-73
2022/08/20 03:05:57;;;;;;;;;1.67;1.67;;;;;-145.03;100.00;62373.16;5075573;28;45422;-73
2022/08/20 03:08:23;;;;;;;;;1.00;1.00;;;;;-145.03;100.00;62373.16;5076130;28;45358;-73
2022/08/20 03:10:49;;;;;;;;;1.33;1.33;;;;;-145.03;100.00;62373.16;5075829;28;46655;-73
2022/08/20 03:13:17;;;;;;;;;1.33;1.33;;;;;-145.03;100.00;62373.16;5078043;28;45358;-73
2022/08/20 03:15:47;;;;;;;;;3.67;2.00;;;;;-145.03;100.00;62373.16;5079605;28;45716;-73
2022/08/20 03:18:13;;;;;;;;;1.67;1.67;;;;;-145.03;100.00;62373.16;5079662;28;45708;-73
2022/08/20 03:20:39;;;;;;;;;1.00;1.00;;;;;-145.03;100.00;62373.16;5078682;28;46137;-73
2022/08/20 03:23:04;;;;;;;;;2.00;1.00;;;;;-145.03;100.00;62373.16;5079070;27;45476;-73
2022/08/20 03:25:30;;;;;;;;;1.00;1.00;;;;;-145.03;100.00;62373.16;5079524;28;45603;-73
2022/08/20 03:27:56;;;;;;;;;1.00;1.00;;;;;-145.03;100.00;62373.16;5079517;28;45549;-73
2022/08/20 03:30:24;;;;;;;;;1.33;1.33;;;;;-145.03;100.00;62373.16;5078944;28;46361;-73
2022/08/20 03:32:50;;;;;;;;;2.00;2.00;;;;;-145.03;100.00;62373.16;5078944;28;45436;-73
2022/08/20 03:35:17;;;;;;;;;1.00;1.00;;;;;-145.03;100.00;62373.16;5078728;27;45405;-73
2022/08/20 03:37:43;;;;;;;;;2.00;2.00;;;;;-145.03;100.00;62373.16;5079227;28;45344;-73
2022/08/20 03:40:12;;;;;;;;;0.67;0.67;;;;;-145.03;100.00;62373.16;5078513;28;46098;-73
2022/08/20 03:42:38;;;;;;;;;3.00;2.00;;;;;-145.03;100.00;62373.16;5078459;27;45634;-74
2022/08/20 03:45:05;;;;;;;;;3.00;1.33;;;;;-145.03;100.00;62373.16;5079059;27;45495;-73
2022/08/20 03:47:31;;;;;;;;;0.67;0.00;;;;;-145.03;100.00;62373.16;5079120;28;45569;-73
2022/08/20 03:49:58;;;;;;;;;2.00;2.00;;;;;-145.03;100.00;62373.16;5078102;28;46012;-73
2022/08/20 03:52:24;;;;;;;;;1.67;1.00;;;;;-145.03;100.00;62373.16;5077528;28;45447;-73
2022/08/20 03:54:49;;;;;;;;;1.33;1.33;;;;;-145.03;100.00;62373.16;5077493;28;45746;-73
2022/08/20 03:57:15;;;;;;;;;1.00;1.00;;;;;-145.03;100.00;62373.16;5079213;28;45366;-73
2022/08/20 03:59:43;;;;;;;;;2.00;2.00;;;;;-145.03;100.00;62373.16;5077153;28;46988;-73
2022/08/20 04:02:12;;;;;;;;;3.00;1.00;;;;;-145.03;100.00;62373.16;5078383;28;45462;-73
2022/08/20 04:04:39;;;;;;;;;2.00;0.67;;;;;-145.03;100.00;62373.16;5078713;28;45540;-73
2022/08/20 04:07:24;;;;;;;;;2.00;2.00;;;;;-145.03;100.00;62373.16;5078985;27;45480;-73
2022/08/20 04:09:56;;;;;;;;;3.00;1.67;;;;;-145.03;100.00;62373.16;5078178;27;46175;-73
2022/08/20 04:12:24;;;;;;;;;2.33;2.33;;;;;-145.03;100.00;62373.16;5078392;28;45444;-73
2022/08/20 04:14:50;;;;;;;;;3.00;2.00;;;;;-145.03;100.00;62373.16;5078364;27;45465;-73
2022/08/20 04:17:17;;;;;;;;;2.00;2.00;;;;;-145.03;100.00;62373.16;5078582;28;45448;-73
2022/08/20 04:19:46;;;;;;;;;1.00;1.00;;;;;-145.03;100.00;62373.16;5077875;27;46104;-73
2022/08/20 04:22:12;;;;;;;;;2.00;2.00;;;;;-145.03;100.00;62373.16;5078196;27;45409;-73
2022/08/20 04:24:39;;;;;;;;;1.33;1.33;;;;;-145.03;100.00;62373.16;5077463;28;45410;-73
2022/08/20 04:27:07;;;;;;;;;1.00;1.00;;;;;-145.03;100.00;62373.16;5078804;28;45656;-85
2022/08/20 04:29:33;;;;;;;;;1.33;1.33;;;;;-145.03;100.00;62373.16;5076388;28;46774;-84
2022/08/20 04:32:01;;;;;;;;;1.00;1.00;;;;;-145.03;100.00;62373.16;5078151;28;45552;-84
2022/08/20 04:34:27;;;;;;;;;1.00;1.00;;;;;-145.03;100.00;62373.16;5078199;28;45456;-84
2022/08/20 04:36:53;;;;;;;;;1.00;1.00;;;;;-145.03;100.00;62373.16;5078306;28;45445;-84
2022/08/20 04:39:18;;;;;;;;;1.00;1.00;;;;;-145.03;100.00;62373.16;5077585;28;46819;-84
2022/08/20 04:41:44;;;;;;;;;1.00;1.00;;;;;-145.03;100.00;62373.16;5077780;27;45405;-84
2022/08/20 04:44:10;;;;;;;;;0.50;0.50;;;;;-145.03;100.00;62373.16;5077787;27;45503;-84
2022/08/20 04:46:37;;;;;;;;;4.00;2.00;;;;;-145.03;100.00;62373.16;5078163;28;45514;-84
2022/08/20 04:49:03;;;;;;;;;1.67;1.33;;;;;-145.03;100.00;62373.16;5077656;28;46377;-84
2022/08/20 04:51:30;;;;;;;;;1.67;1.00;;;;;-145.03;100.00;62373.16;5077865;28;45431;-84
2022/08/20 04:53:56;;;;;;;;;1.67;1.00;;;;;-145.03;100.00;62373.16;5077705;28;45502;-84
2022/08/20 04:56:24;;;;;;;;;2.00;1.00;;;;;-145.03;100.00;62373.16;5078324;28;45316;-84
2022/08/20 04:58:51;;;;;;;;;1.00;1.00;;;;;-145.03;100.00;62373.16;5077511;28;46796;-84
2022/08/20 05:01:16;;;;;;;;;2.00;1.00;;;;;-145.03;100.00;62373.16;5076981;28;45495;-84
2022/08/20 05:03:42;;;;;;;;;0.00;0.00;;;;;-145.03;100.00;62373.16;5077819;28;45407;-85
2022/08/20 05:06:10;;;;;;;;;2.33;1.33;;;;;-145.03;100.00;62373.16;5076580;28;45538;-85
2022/08/20 05:08:40;;;;;;;;;1.67;1.67;;;;;-145.03;100.00;62373.16;5077332;28;46516;-84
2022/08/20 05:11:08;;;;;;;;;2.33;1.00;;;;;-145.03;100.00;62373.16;5077489;28;45395;-84
2022/08/20 05:13:33;;;;;;;;;1.00;1.00;;;;;-145.03;100.00;62373.16;5077412;27;45543;-84
2022/08/20 05:16:00;;;;;;;;;3.33;1.67;;;;;-145.03;100.00;62373.16;5076096;28;45470;-84
2022/08/20 05:18:26;;;;;;;;;1.00;1.00;;;;;-145.03;100.00;62373.16;5077217;28;47025;-84
2022/08/20 05:20:52;;;;;;;;;1.67;1.67;;;;;-145.03;100.00;62373.16;5077248;28;45384;-84
2022/08/20 05:23:19;;;;;;;;;2.50;2.00;;;;;-145.03;100.00;62373.16;5077364;28;45503;-84
2022/08/20 05:25:48;;;;;;;;;1.00;1.00;;;;;-145.03;100.00;62373.16;5077356;28;45459;-84
2022/08/20 05:28:22;;;;;;;;;2.33;2.33;;;;;-145.03;100.00;62373.16;5077155;28;47181;-85
2022/08/20 05:30:50;;;;;;;;;1.00;1.00;;;;;-145.03;100.00;62373.16;5076947;27;45455;-85
2022/08/20 05:33:18;;;;;;;;;2.00;1.00;;;;;-145.03;100.00;62373.16;5076931;28;45444;-85
2022/08/20 05:35:47;;;;;;;;;2.00;1.00;;;;;-145.03;100.00;62373.16;5077180;28;45591;-85
2022/08/20 05:38:15;;;;;;;;;0.33;0.33;;;;;-145.03;100.00;62373.16;5077131;27;46520;-85
2022/08/20 05:40:41;;;;;;;;;1.00;1.00;;;;;-145.03;100.00;62373.16;5076569;28;45505;-85
2022/08/20 05:43:07;;;;;;;;;0.67;0.67;;;;;-145.03;100.00;62373.16;5077071;27;45469;-85
2022/08/20 05:45:36;;;;;;;;;2.00;2.00;;;;;-145.03;100.00;62373.16;5077069;28;45474;-85
2022/08/20 05:48:11;;;;;;;;;3.00;1.00;;;;;-145.03;100.00;62373.16;5076697;28;45996;-85
2022/08/20 05:50:38;;;;;;;;;3.67;2.00;;;;;-145.03;100.00;62373.16;5076680;28;45412;-85
2022/08/20 05:53:04;;;;;;;;;0.67;0.67;;;;;-145.03;100.00;62373.16;5077020;28;45574;-85
2022/08/20 05:55:30;;;;;;;;;1.00;1.00;;;;;-145.03;100.00;62373.16;5077275;28;45511;-85
2022/08/20 05:58:01;;;;;;;;;3.00;1.67;;;;;-145.03;100.00;62373.16;5076520;28;46472;-85
2022/08/20 06:00:28;;;;;;;;;4.00;2.33;;;;;-145.03;100.00;62373.16;5076586;28;45395;-85
2022/08/20 06:05:38;;;;;;;;;3.00;3.00;;;;;-145.03;100.00;62373.16;5077063;28;45458;-85
2022/08/20 06:08:08;;;;;;;;;2.25;1.00;;;;;-145.03;100.00;62373.16;5076511;28;46555;-85
2022/08/20 06:10:35;;;;;;;;;1.33;1.00;;;;;-145.03;100.00;62373.16;5076742;28;45381;-85
2022/08/20 06:13:01;;;;;;;;;1.00;1.00;;;;;-145.03;100.00;62373.16;5076413;28;45372;-85
2022/08/20 06:15:27;;;;;;;;;0.00;0.00;;;;;-145.03;100.00;62373.16;5076665;27;45548;-85
2022/08/20 06:17:53;;;;;;;;;2.00;2.00;;;;;-145.03;100.00;62373.16;5075184;28;46213;-85
2022/08/20 06:20:18;;;;;;;;;2.00;2.00;;;;;-145.03;100.00;62373.16;5076424;27;45487;-85
2022/08/20 06:22:43;;;;;;;;;1.00;1.00;;;;;-145.03;100.00;62373.16;5076365;28;45538;-85
2022/08/20 06:25:09;;;;;;;;;1.33;1.33;;;;;-145.03;100.00;62373.16;5075258;28;45699;-85
2022/08/20 06:27:40;;;;;;;;;1.00;1.00;;;;;-145.03;100.00;62373.16;5076421;28;45504;-85
2022/08/20 06:30:07;;;;;;;;;1.00;1.00;;;;;-145.03;100.00;62373.16;5076282;28;45543;-85
2022/08/20 06:32:32;;;;;;;;;1.00;1.00;;;;;-145.03;100.00;62373.16;5074847;28;45424;-85
2022/08/20 06:35:00;;;;;;;;;3.67;2.00;;;;;-145.03;100.00;62373.16;5076459;28;45464;-85
2022/08/20 06:37:27;;;;;;;;;1.00;1.00;;;;;-145.03;100.00;62373.16;5076440;28;47105;-85
2022/08/20 06:39:53;;;;;;;;;0.50;0.50;;;;;-145.03;100.00;62373.16;5076239;27;45339;-85
2022/08/20 06:42:20;;;;;;;;;2.50;2.50;;;;;-145.03;100.00;62373.16;5074816;27;46055;-85
2022/08/20 06:44:49;;;;;;;;;1.25;1.25;;;;;-145.03;100.00;62373.16;5076418;27;45483;-85
2022/08/20 06:47:19;;;;;;;;;2.67;1.67;;;;;-145.03;100.00;62373.16;5076725;28;46408;-85
2022/08/20 06:49:46;;;;;;;;;1.25;1.25;;;;;-145.03;100.00;62373.16;5079754;27;45537;-85
2022/08/20 06:52:13;;;;;;;;;1.00;1.00;;;;;-145.03;100.00;62373.16;5079810;28;45475;-85
2022/08/20 06:54:38;;;;;;;;;1.67;1.00;;;;;-145.03;100.00;62373.16;5079875;28;45551;-85
2022/08/20 06:57:04;;;;;;;;;7.33;1.67;;;;;-145.03;100.00;62373.16;5079385;28;45430;-85
2022/08/20 06:59:29;;;;;;;;;2.67;1.00;;;;;-145.03;100.00;62373.16;5079333;28;45467;-84
2022/08/20 07:01:57;;;;;;;;;3.00;3.00;;;;;-145.03;100.00;62373.16;5079605;28;45445;-85
2022/08/20 07:04:25;;;;;;;;;1.00;1.00;;;;;-145.03;100.00;62373.16;5079957;28;45502;-85
2022/08/20 07:06:51;;;;;;;;;1.00;1.00;;;;;-145.03;100.00;62373.16;5079593;28;46217;-84
2022/08/20 07:09:18;;;;;;;;;3.33;3.33;;;;;-145.03;100.00;62373.16;5079803;27;45499;-85
2022/08/20 07:11:44;;;;;;;;;2.00;2.00;;;;;-145.03;100.00;62373.16;5079291;28;45456;-85
2022/08/20 07:14:10;;;;;;;;;2.50;1.25;;;;;-145.03;100.00;62373.16;5079438;27;45548;-85
2022/08/20 07:16:35;;;;;;;;;1.75;1.75;;;;;-145.03;100.00;62373.16;5079246;28;46175;-85
2022/08/20 07:19:01;;;;;;;;;1.75;1.25;;;;;-145.03;100.00;62373.16;5078012;28;45459;-85
2022/08/20 07:21:26;;;;;;;;;3.00;1.00;;;;;-145.03;100.00;62373.16;5079202;27;45497;-85
2022/08/20 07:23:52;;;;;;;;;2.00;1.25;;;;;-145.03;100.00;62373.16;5079738;28;45492;-85
2022/08/20 07:26:18;;;;;;;;;1.50;1.00;;;;;-145.03;100.00;62373.16;5078821;28;45532;-74
2022/08/20 07:28:44;;;;;;;;;2.00;2.00;;;;;-145.03;100.00;62373.16;5079230;28;45591;-73
2022/08/20 07:33:53;;;;;;;;;1.00;1.00;;;;;-145.03;100.00;62373.16;5079212;28;45511;-73
2022/08/20 07:36:19;;;;;;;;;3.00;2.50;;;;;-145.03;100.00;62373.16;5077544;28;46014;-73
2022/08/20 07:38:46;;;;;;;;;7.67;7.67;;;;;-145.03;100.00;62373.16;5078744;28;45386;-73
2022/08/20 07:41:13;;;;;;;;;5.25;2.00;;;;;-145.03;100.00;62373.16;5078614;28;45437;-73
2022/08/20 07:43:40;;;;;;;;;1.50;1.50;;;;;-145.03;100.00;62373.16;5078835;27;45389;-73
2022/08/20 07:46:08;;;;;;;;;5.50;1.50;;;;;-145.03;100.00;62373.16;5078659;28;46358;-73
2022/08/20 07:48:34;;;;;;;;;0.50;0.50;;;;;-145.03;100.00;62373.16;5078686;28;45393;-73
2022/08/20 07:51:03;;;;;;;;;2.50;2.50;;;;;-145.03;100.00;62373.16;5079035;28;45409;-73
2022/08/20 07:53:29;;;;;;;;;2.75;1.00;;;;;-145.03;100.00;62373.16;5078753;28;45542;-73
2022/08/20 07:55:56;;;;;;;;;1.00;1.00;;;;;-145.03;100.00;62373.16;5077203;28;46373;-73
2022/08/20 07:58:22;;;;;;;;;2.00;2.00;;;;;-145.03;100.00;62373.16;5077490;28;45448;-74
2022/08/20 08:00:48;;;;;;;;;1.50;1.25;;;;;-145.03;100.00;62373.16;5077126;28;45298;-74
2022/08/20 08:03:14;;;;;;;;;3.25;2.00;;;;;-145.03;100.00;62373.16;5078930;28;45716;-74
2022/08/20 08:05:42;;;;;;;;;4.75;1.00;;;;;-145.03;100.00;62373.16;5078217;28;46256;-73
2022/08/20 08:08:12;;;;;;;;;2.50;1.75;;;;;-145.03;100.00;62373.16;5078148;28;45443;-73
2022/08/20 08:10:41;;;;;;;;;3.00;3.00;;;;;-145.03;100.00;62373.16;5078178;28;45431;-73
2022/08/20 08:13:11;;;;;;;;;3.50;3.00;;;;;-145.03;100.00;62373.16;5078870;28;45596;-74
2022/08/20 08:15:40;;;;;;;;;4.25;2.25;;;;;-145.03;100.00;62373.16;5078164;28;47227;-73
2022/08/20 08:18:10;;;;;;;;;1.50;1.50;;;;;-145.03;100.00;62373.16;5078212;28;45561;-73
2022/08/20 08:20:39;;;;;;;;;1.00;1.00;;;;;-145.03;100.00;62373.16;5078311;28;45548;-73
2022/08/20 08:23:06;;;;;;;;;2.75;1.75;;;;;-145.03;100.00;62373.16;5078619;28;45447;-73
2022/08/20 08:25:32;;;;;;;;;2.25;2.00;;;;;-145.03;100.00;62373.16;5077572;27;46352;-73
2022/08/20 08:27:59;;;;;;;;;3.00;1.75;;;;;-145.03;100.00;62373.16;5078105;28;45593;-73
2022/08/20 08:30:26;;;;;;;;;2.50;2.50;;;;;-145.03;100.00;62373.16;5078481;28;45491;-73
2022/08/20 08:35:39;;;;;;;;;1.00;1.00;;;;;-145.03;100.00;62373.16;5077741;28;45712;-74
2022/08/20 08:38:04;;;;;;;;;3.50;2.25;;;;;-145.03;100.00;62373.16;5077740;28;45453;-74
2022/08/20 08:40:31;;;;;;;;;2.25;1.25;;;;;-145.03;100.00;62373.16;5077729;28;45544;-74
2022/08/20 08:43:00;;;;;;;;;2.00;2.00;;;;;-145.03;100.00;62373.16;5078275;27;45741;-72
2022/08/20 08:45:42;;;;;;;;;1.50;1.50;;;;;-145.03;100.00;62373.16;5077935;28;46314;-72
2022/08/20 08:48:12;;;;;;;;;0.75;0.75;;;;;-145.03;100.00;62373.16;5077742;28;45717;-72
2022/08/20 08:50:38;;;;;;;;;2.00;1.50;;;;;-145.03;100.00;62373.16;5077810;28;45470;-72
2022/08/20 08:53:04;;;;;;;;;1.00;1.00;;;;;-145.03;100.00;62373.16;5076732;28;45498;-72
2022/08/20 08:55:30;;;;;;;;;5.50;3.00;;;;;-145.03;100.00;62373.16;5077487;28;46398;-72
2022/08/20 08:58:00;;;;;;;;;1.50;1.50;;;;;-145.03;100.00;62373.16;5077416;28;45407;-72
2022/08/20 09:00:27;;;;;;;;;2.25;1.00;;;;;-145.03;100.00;62373.16;5077691;27;45567;-72
2022/08/20 09:02:59;;;;;;;;;1.00;0.50;;;;;-145.03;100.00;62373.16;5077927;28;45465;-72
2022/08/20 09:05:33;;;;;;;;;1.00;1.00;;;;;-145.03;100.00;62373.16;5077384;28;46116;-72
2022/08/20 09:08:02;;;;;;;;;2.00;1.25;;;;;-145.03;100.00;62373.16;5075845;28;45452;-72
2022/08/20 09:10:27;;;;;;;;;0.75;0.75;;;;;-145.03;100.00;62373.16;5076995;28;45460;-72
2022/08/20 09:12:53;;;;;;;;;0.00;0.00;;;;;-145.03;100.00;62373.16;5077845;28;45306;-74
2022/08/20 09:15:20;;;;;;;;;2.00;1.75;;;;;-145.03;100.00;62373.16;5077225;28;46311;-73
2022/08/20 09:17:45;;;;;;;;;1.75;1.00;;;;;-145.03;100.00;62373.16;5077442;28;45380;-73
2022/08/20 09:20:11;;;;;;;;;2.00;1.00;;;;;-145.03;100.00;62373.16;5077492;28;45404;-73
2022/08/20 09:22:36;;;;;;;;;2.00;1.75;;;;;-145.03;100.00;62373.16;5077427;28;45421;-73
2022/08/20 09:25:03;;;;;;;;;3.00;1.00;;;;;-145.03;100.00;62373.16;5077394;28;46208;-73
2022/08/20 09:27:30;;;;;;;;;2.00;0.75;;;;;-145.03;100.00;62373.16;5077085;28;45463;-73
2022/08/20 09:29:55;;;;;;;;;1.00;1.00;;;;;-145.03;100.00;62373.16;5077229;28;45813;-73
2022/08/20 09:32:22;;;;;;;;;1.00;1.00;;;;;-145.03;100.00;62373.16;5077453;28;45412;-73
2022/08/20 09:34:55;;;;;;;;;3.75;1.00;;;;;-145.03;100.00;62373.16;5076712;28;45472;-73
2022/08/20 09:37:22;;;;;;;;;1.75;0.75;;;;;-145.03;100.00;62373.16;5076665;28;45501;-73
2022/08/20 09:39:48;;;;;;;;;4.00;1.00;;;;;-145.03;100.00;62373.16;5077045;28;45325;-73
2022/08/20 09:42:17;;;;;;;;;3.00;1.00;;;;;-145.03;100.00;62373.16;5077250;27;45441;-73
2022/08/20 09:44:43;;;;;;;;;1.50;1.25;;;;;-145.03;100.00;62373.16;5075541;28;45492;-73
2022/08/20 09:47:09;;;;;;;;;1.00;1.00;;;;;-145.03;100.00;62373.16;5076793;27;45458;-73
2022/08/20 09:49:36;;;;;;;;;0.00;0.00;;;;;-145.03;100.00;62373.16;5077118;28;45449;-73
2022/08/20 09:52:03;;;;;;;;;1.75;0.00;;;;;-145.03;100.00;62373.16;5077046;28;45433;-73
2022/08/20 09:54:32;;;;;;;;;0.00;0.00;;;;;-145.03;100.00;62373.16;5076595;28;47222;-73
2022/08/20 09:57:00;;;;;;;;;0.75;0.75;;;;;-145.03;100.00;62373.16;5076726;27;45434;-73
2022/08/20 09:59:27;;;;;;;;;1.00;1.00;;;;;-145.03;100.00;62373.16;5076965;28;45582;-74
2022/08/20 10:01:53;;;;;;;;;0.00;0.00;;;;;-145.03;100.00;62373.16;5077123;28;45540;-73
2022/08/20 10:04:18;;;;;;;;;1.00;0.00;;;;;-145.03;100.00;62373.16;5075157;28;45414;-73
2022/08/20 10:06:44;;;;;;;;;0.00;0.00;;;;;-145.03;100.00;62373.16;5076583;28;45460;-74
2022/08/20 10:09:09;;;;;;;;;1.25;1.00;;;;;-145.03;100.00;62373.16;5076768;27;45522;-73
2022/08/20 10:11:34;;;;;;;;;2.00;0.50;;;;;-145.03;100.00;62373.16;5077030;28;45468;-73
2022/08/20 10:14:00;;;;;;;;;0.00;0.00;;;;;-145.03;100.00;62373.16;5076297;27;45514;-73
2022/08/20 10:16:25;;;;;;;;;0.75;0.00;;;;;-145.03;100.00;62373.16;5076877;27;45447;-73
2022/08/20 10:18:51;;;;;;;;;0.00;0.00;;;;;-145.03;100.00;62373.16;5076892;27;45511;-73
2022/08/20 10:21:17;;;;;;;;;0.25;0.00;;;;;-145.03;100.00;62373.16;5075875;28;45809;-73
2022/08/20 10:23:42;;;;;;;;;1.00;0.50;;;;;-145.03;100.00;62373.16;5076158;28;46094;-73
2022/08/20 10:26:08;;;;;;;;;1.75;1.75;;;;;-145.03;100.00;62373.16;5076359;28;45465;-73
2022/08/20 10:28:34;;;;;;;;;1.00;1.00;;;;;-145.03;100.00;62373.16;5075452;28;45513;-84
2022/08/20 10:30:59;;;;;;;;;5.00;5.00;;;;;-145.03;100.00;62373.16;5076886;27;45489;-84
2022/08/20 10:33:25;;;;;;;;;4.67;4.00;;;;;-145.03;100.00;62373.16;5076218;28;45427;-85
2022/08/20 10:35:50;;;;;;;;;2.25;0.00;;;;;-145.03;100.00;62373.16;5075258;28;45461;-84
2022/08/20 10:38:16;;;;;;;;;2.00;0.25;;;;;-145.03;100.00;62373.16;5076413;28;45424;-85
2022/08/20 10:40:41;;;;;;;;;1.00;1.00;;;;;-145.03;100.00;62373.16;5075029;28;45591;-85
2022/08/20 10:43:07;;;;;;;;;1.00;1.00;;;;;-145.03;100.00;62373.16;5075986;27;46002;-85
2022/08/20 10:45:32;;;;;;;;;0.25;0.25;;;;;-145.03;100.00;62373.16;5076174;27;45381;-85
2022/08/20 10:47:59;;;;;;;;;1.00;1.00;;;;;-145.03;100.00;62373.16;5076214;27;45389;-85
2022/08/20 10:50:24;;;;;;;;;0.00;0.00;;;;;-145.03;100.00;62373.16;5076592;28;45471;-85
2022/08/20 10:52:49;;;;;;;;;0.00;0.00;;;;;-145.03;100.00;62373.16;5075822;28;46188;-84
2022/08/20 10:55:15;;;;;;;;;0.00;0.00;;;;;-145.03;100.00;62373.16;5074199;28;51337;-85
2022/08/20 10:57:41;;;;;;;;;0.25;0.25;;;;;-145.03;100.00;62373.16;5076374;28;45579;-85
2022/08/20 11:00:09;;;;;;;;;0.00;0.00;;;;;-145.03;100.00;62373.16;5076417;28;45565;-85
2022/08/20 11:02:34;;;;;;;;;0.00;0.00;;;;;-145.03;100.00;62373.16;5075576;28;46127;-86
2022/08/20 11:05:00;;;;;;;;;0.67;0.67;;;;;-145.03;100.00;62373.16;5075794;28;45499;-85
2022/08/20 11:07:34;;;;;;;;;0.00;0.00;;;;;-145.03;100.00;62373.16;5076239;27;45714;-84
2022/08/20 11:10:00;;;;;;;;;1.67;0.67;;;;;-145.03;100.00;62373.16;5076044;27;45554;-86
2022/08/20 11:12:25;;;;;;;;;1.33;0.00;;;;;-145.03;100.00;62373.16;5075999;28;45560;-85
2022/08/20 11:14:52;;;;;;;;;0.00;0.00;;;;;-145.03;100.00;62373.16;5075574;27;45377;-85
2022/08/20 11:17:22;;;;;;;;;2.00;1.00;;;;;-145.03;100.00;62373.16;5075927;28;45344;-85
2022/08/20 11:19:48;;;;;;;;;2.75;0.00;;;;;-145.03;100.00;62373.16;5075509;28;45470;-85